createdAt,value
2019-05-12T00:00:20.198Z,196.02
2019-05-12T00:02:48.801Z,194.77
2019-05-12T00:05:18.441Z,204.13
2019-05-12T00:07:48.848Z,211.03
2019-05-12T00:10:18.041Z,275.55
2019-05-12T00:12:48.408Z,311.43
2019-05-12T00:15:19.106Z,238.53
2019-05-12T00:17:48.536Z,200.15
2019-05-12T00:20:18.058Z,174.20
2019-05-12T00:22:49.166Z,165.52
2019-05-12T00:25:18.557Z,165.60
2019-05-12T00:27:48.582Z,180.60
2019-05-12T00:30:38.891Z,176.47
2019-05-12T00:33:09.401Z,176.32
2019-05-12T00:35:38.301Z,166.20
2019-05-12T00:38:09.115Z,168.02
2019-05-12T00:40:39.232Z,163.47
2019-05-12T00:43:08.737Z,181.97
2019-05-12T00:45:38.747Z,178.35
2019-05-12T00:48:09.147Z,138.88
2019-05-12T00:50:38.429Z,112.43
2019-05-12T00:53:08.940Z,101.25
2019-05-12T00:55:38.030Z,96.12
2019-05-12T00:58:08.223Z,81.67
2019-05-12T01:00:40.639Z,85.32
2019-05-12T01:03:08.656Z,95.95
2019-05-12T01:05:38.408Z,102.45
2019-05-12T01:08:08.857Z,125.02
2019-05-12T01:10:39.042Z,128.78
2019-05-12T01:13:08.625Z,133.67
2019-05-12T01:15:37.901Z,125.50
2019-05-12T01:18:09.348Z,138.92
2019-05-12T01:20:38.873Z,135.17
2019-05-12T01:23:08.617Z,129.60
2019-05-12T01:25:39.498Z,100.42
2019-05-12T01:28:08.475Z,102.53
2019-05-12T01:30:39.171Z,100.35
2019-05-12T01:33:08.551Z,80.60
2019-05-12T01:35:38.696Z,82.88
2019-05-12T01:38:08.112Z,71.37
2019-05-12T01:40:39.562Z,67.92
2019-05-12T01:43:08.648Z,62.97
2019-05-12T01:45:38.112Z,62.00
2019-05-12T01:48:08.666Z,59.25
2019-05-12T01:50:38.548Z,52.08
2019-05-12T01:53:08.391Z,58.17
2019-05-12T01:55:38.701Z,56.98
2019-05-12T01:58:08.290Z,56.05
2019-05-12T02:00:38.827Z,55.63
2019-05-12T02:03:09.076Z,54.35
2019-05-12T02:05:39.590Z,47.50
2019-05-12T02:08:09.890Z,47.83
2019-05-12T02:10:38.906Z,47.10
2019-05-12T02:13:08.024Z,44.85
2019-05-12T02:15:38.375Z,42.62
2019-05-12T02:18:09.168Z,39.40
2019-05-12T02:20:38.169Z,44.07
2019-05-12T02:23:09.058Z,49.60
2019-05-12T02:25:38.061Z,46.05
2019-05-12T02:28:09.242Z,47.20
2019-05-12T02:30:40.714Z,45.43
2019-05-12T02:33:07.343Z,46.85
2019-05-12T02:35:35.951Z,45.43
2019-05-12T02:38:05.420Z,52.83
2019-05-12T02:40:34.867Z,44.98
2019-05-12T02:43:05.425Z,46.40
2019-05-12T02:45:35.569Z,52.83
2019-05-12T02:48:05.894Z,51.45
2019-05-12T02:50:37.682Z,52.03
2019-05-12T02:53:07.271Z,55.55
2019-05-12T02:55:36.432Z,53.92
2019-05-12T02:58:06.238Z,55.13
2019-05-12T03:00:36.714Z,63.95
2019-05-12T03:03:08.515Z,52.43
2019-05-12T03:05:38.690Z,52.75
2019-05-12T03:08:07.241Z,50.85
2019-05-12T03:10:36.814Z,48.98
2019-05-12T03:13:05.558Z,50.85
2019-05-12T03:15:36.748Z,45.60
2019-05-12T03:18:06.176Z,48.42
2019-05-12T03:20:35.905Z,47.50
2019-05-12T03:23:06.224Z,48.87
2019-05-12T03:25:36.394Z,49.20
2019-05-12T03:28:08.681Z,49.58
2019-05-12T03:30:38.060Z,44.75
2019-05-12T03:33:09.636Z,50.83
2019-05-12T03:35:43.077Z,46.60
2019-05-12T03:38:07.096Z,45.40
2019-05-12T03:40:38.353Z,49.77
2019-05-12T03:43:06.072Z,48.50
2019-05-12T03:45:35.863Z,50.73
2019-05-12T03:48:05.835Z,57.53
2019-05-12T03:50:35.788Z,51.40
2019-05-12T03:53:10.018Z,51.68
2019-05-12T03:55:41.498Z,53.40
2019-05-12T03:58:06.375Z,48.57
2019-05-12T04:00:36.065Z,51.58
2019-05-12T04:03:05.740Z,52.03
2019-05-12T04:05:35.748Z,56.55
2019-05-12T04:08:06.589Z,57.48
2019-05-12T04:10:36.499Z,55.85
2019-05-12T04:13:05.853Z,127.17
2019-05-12T04:15:35.577Z,61.45
2019-05-12T04:18:06.146Z,73.07
2019-05-12T04:20:36.019Z,64.82
2019-05-12T04:23:06.462Z,82.65
2019-05-12T04:25:51.009Z,300.68
2019-05-12T04:28:05.868Z,71.90
2019-05-12T04:30:35.607Z,101.42
2019-05-12T04:33:05.970Z,78.90
2019-05-12T04:35:35.552Z,78.92
2019-05-12T04:38:05.720Z,72.65
2019-05-12T04:40:35.867Z,90.93
2019-05-12T04:43:06.686Z,83.42
2019-05-12T04:45:35.710Z,86.43
2019-05-12T04:48:06.366Z,81.92
2019-05-12T04:50:36.030Z,132.47
2019-05-12T04:53:06.795Z,123.30
2019-05-12T04:55:36.359Z,96.90
2019-05-12T04:58:05.689Z,90.67
2019-05-12T05:00:35.385Z,115.10
2019-05-12T05:03:05.961Z,126.15
2019-05-12T05:05:36.073Z,122.42
2019-05-12T05:08:05.392Z,92.02
2019-05-12T05:10:34.865Z,102.00
2019-05-12T05:13:05.055Z,134.10
2019-05-12T05:15:34.980Z,133.37
2019-05-12T05:18:06.668Z,100.66
2019-05-12T05:20:35.377Z,93.42
2019-05-12T05:23:04.738Z,89.22
2019-05-12T05:25:35.382Z,98.85
2019-05-12T05:28:05.490Z,97.55
2019-05-12T05:30:34.486Z,133.57
2019-05-12T05:33:04.585Z,114.95
2019-05-12T05:35:39.381Z,102.12
2019-05-12T05:40:35.860Z,123.15
2019-05-12T05:43:12.174Z,110.95
2019-05-12T05:45:35.063Z,108.83
2019-05-12T05:48:09.719Z,110.37
2019-05-12T05:50:35.356Z,115.90
2019-05-12T05:53:04.286Z,110.35
2019-05-12T05:55:34.327Z,117.30
2019-05-12T05:58:07.924Z,128.40
2019-05-12T06:00:35.252Z,152.50
2019-05-12T06:03:05.326Z,118.42
2019-05-12T06:05:35.430Z,151.97
2019-05-12T06:08:09.714Z,123.90
2019-05-12T06:10:40.027Z,123.58
2019-05-12T06:13:05.573Z,117.53
2019-05-12T06:15:38.840Z,142.28
2019-05-12T06:18:05.261Z,134.47
2019-05-12T06:20:37.722Z,126.12
2019-05-12T06:23:05.014Z,116.40
2019-05-12T06:25:45.561Z,148.45
2019-05-12T06:28:08.553Z,110.97
2019-05-12T06:30:43.924Z,184.47
2019-05-12T06:33:05.724Z,163.18
2019-05-12T06:35:37.609Z,120.37
2019-05-12T06:38:05.434Z,122.53
2019-05-12T06:40:40.247Z,200.82
2019-05-12T06:43:04.907Z,180.42
2019-05-12T06:45:42.087Z,106.03
2019-05-12T06:48:05.119Z,98.40
2019-05-12T06:50:39.052Z,133.03
2019-05-12T06:53:05.497Z,89.25
2019-05-12T06:55:38.988Z,135.63
2019-05-12T06:58:05.253Z,143.85
2019-05-12T07:00:35.300Z,121.70
2019-05-12T07:03:05.571Z,120.20
2019-05-12T07:05:38.208Z,108.50
2019-05-12T07:08:05.316Z,81.10
2019-05-12T07:10:39.405Z,116.33
2019-05-12T07:13:06.055Z,89.28
2019-05-12T07:15:40.152Z,147.50
2019-05-12T07:18:07.336Z,119.53
2019-05-12T07:20:39.033Z,153.57
2019-05-12T07:23:06.080Z,103.30
2019-05-12T07:25:36.780Z,87.45
2019-05-12T07:28:07.811Z,105.03
2019-05-12T07:30:35.515Z,74.62
2019-05-12T07:33:04.604Z,85.15
2019-05-12T07:35:34.335Z,83.52
2019-05-12T07:38:04.755Z,98.70
2019-05-12T07:40:36.744Z,146.98
2019-05-12T07:43:04.584Z,93.27
2019-05-12T07:45:33.982Z,107.87
2019-05-12T07:48:07.078Z,223.75
2019-05-12T07:50:34.486Z,293.82
2019-05-12T07:53:04.137Z,166.53
2019-05-12T07:55:34.156Z,111.20
2019-05-12T07:58:10.353Z,86.05
2019-05-12T08:00:34.115Z,72.05
2019-05-12T08:03:08.175Z,71.30
2019-05-12T08:05:33.818Z,66.12
2019-05-12T08:08:07.123Z,64.35
2019-05-12T08:10:34.208Z,60.80
2019-05-12T08:13:04.344Z,59.48
2019-05-12T08:15:34.108Z,68.75
2019-05-12T08:18:07.445Z,81.22
2019-05-12T08:20:34.332Z,50.67
2019-05-12T08:23:05.880Z,46.73
2019-05-12T08:25:34.863Z,113.62
2019-05-12T08:28:15.213Z,51.40
2019-05-12T08:30:45.801Z,120.37
2019-05-12T08:33:09.919Z,52.93
2019-05-12T08:35:38.614Z,83.40
2019-05-12T08:38:09.572Z,108.63
2019-05-12T08:40:48.749Z,44.57
2019-05-12T08:43:10.519Z,68.62
2019-05-12T08:45:38.506Z,52.55
2019-05-12T08:48:10.234Z,42.33
2019-05-12T08:50:37.299Z,46.80
2019-05-12T08:53:05.814Z,56.15
2019-05-12T08:55:35.911Z,68.10
2019-05-12T08:58:05.076Z,43.83
2019-05-12T09:00:44.838Z,63.92
2019-05-12T09:03:09.497Z,51.88
2019-05-12T09:05:39.172Z,32.33
2019-05-12T09:08:07.814Z,42.23
2019-05-12T09:10:36.295Z,20.72
2019-05-12T09:13:05.124Z,22.98
2019-05-12T09:15:34.528Z,35.40
2019-05-12T09:18:04.771Z,38.55
2019-05-12T09:20:34.098Z,46.63
2019-05-12T09:23:04.665Z,35.95
2019-05-12T09:25:34.061Z,29.15
2019-05-12T09:28:03.812Z,31.97
2019-05-12T09:30:33.649Z,21.85
2019-05-12T09:33:04.035Z,23.05
2019-05-12T09:35:35.053Z,17.07
2019-05-12T09:38:05.995Z,22.57
2019-05-12T09:40:35.639Z,38.53
2019-05-12T09:43:08.751Z,22.82
2019-05-12T09:45:40.734Z,20.57
2019-05-12T09:48:09.057Z,19.62
2019-05-12T09:50:35.856Z,30.37
2019-05-12T09:53:07.051Z,31.68
2019-05-12T09:55:35.334Z,49.77
2019-05-12T09:58:04.254Z,34.83
2019-05-12T10:00:36.022Z,20.80
2019-05-12T10:03:04.784Z,28.62
2019-05-12T10:05:39.289Z,34.33
2019-05-12T10:08:04.936Z,49.20
2019-05-12T10:10:35.511Z,68.70
2019-05-12T10:13:04.702Z,29.07
2019-05-12T10:15:33.711Z,32.38
2019-05-12T10:18:06.595Z,40.75
2019-05-12T10:20:35.264Z,62.30
2019-05-12T10:23:04.405Z,50.05
2019-05-12T10:25:33.894Z,36.28
2019-05-12T10:28:11.160Z,57.75
2019-05-12T10:30:34.267Z,54.73
2019-05-12T10:33:03.743Z,36.53
2019-05-12T10:35:34.989Z,35.98
2019-05-12T10:38:08.546Z,36.88
2019-05-12T10:40:33.789Z,29.35
2019-05-12T10:43:04.497Z,36.58
2019-05-12T10:45:33.892Z,35.90
2019-05-12T10:48:03.618Z,28.30
2019-05-12T10:50:34.181Z,30.35
2019-05-12T10:53:04.668Z,22.82
2019-05-12T10:55:33.829Z,30.25
2019-05-12T10:58:06.549Z,27.35
2019-05-12T11:00:34.046Z,20.73
2019-05-12T11:03:10.356Z,17.87
2019-05-12T11:05:33.886Z,22.82
2019-05-12T11:08:06.434Z,25.82
2019-05-12T11:10:33.211Z,46.55
2019-05-12T11:13:07.532Z,38.85
2019-05-12T11:15:33.977Z,31.87
2019-05-12T11:18:03.803Z,22.70
2019-05-12T11:20:34.415Z,30.10
2019-05-12T11:23:03.565Z,28.32
2019-05-12T11:25:34.007Z,19.70
2019-05-12T11:28:03.662Z,24.02
2019-05-12T11:30:34.633Z,29.20
2019-05-12T11:33:04.331Z,30.20
2019-05-12T11:35:34.025Z,23.15
2019-05-12T11:38:04.463Z,20.48
2019-05-12T11:40:34.745Z,19.40
2019-05-12T11:43:04.093Z,30.90
2019-05-12T11:45:33.849Z,40.50
2019-05-12T11:48:05.784Z,50.30
2019-05-12T11:50:33.169Z,29.93
2019-05-12T11:53:03.979Z,34.43
2019-05-12T11:55:34.198Z,31.03
2019-05-12T11:58:06.778Z,67.83
2019-05-12T12:00:36.761Z,35.68
2019-05-12T12:03:12.813Z,37.40
2019-05-12T12:05:38.268Z,65.25
2019-05-12T12:08:05.837Z,39.63
2019-05-12T12:10:38.337Z,29.82
2019-05-12T12:13:04.814Z,34.10
2019-05-12T12:15:34.510Z,34.70
2019-05-12T12:18:12.780Z,36.13
2019-05-12T12:20:33.997Z,41.47
2019-05-12T12:23:06.584Z,37.15
2019-05-12T12:25:34.119Z,37.45
2019-05-12T12:28:04.285Z,42.67
2019-05-12T12:30:33.876Z,46.85
2019-05-12T12:33:04.028Z,52.85
2019-05-12T12:35:34.617Z,26.30
2019-05-12T12:38:03.791Z,47.37
2019-05-12T12:40:32.495Z,53.33
2019-05-12T12:43:03.419Z,44.77
2019-05-12T12:45:36.638Z,57.17
2019-05-12T12:48:03.257Z,38.28
2019-05-12T12:50:34.203Z,44.90
2019-05-12T12:53:02.596Z,40.80
2019-05-12T12:55:31.109Z,58.52
2019-05-12T12:57:59.599Z,284.57
2019-05-12T13:00:32.037Z,70.62
2019-05-12T13:02:58.509Z,73.52
2019-05-12T13:05:27.147Z,45.45
2019-05-12T13:07:55.660Z,44.93
2019-05-12T13:10:24.771Z,57.00
2019-05-12T13:12:58.686Z,53.63
2019-05-12T13:15:23.812Z,83.85
2019-05-12T13:17:52.335Z,106.37
2019-05-12T13:20:23.644Z,218.35
2019-05-12T13:22:53.499Z,151.12
2019-05-12T13:25:21.749Z,86.20
2019-05-12T13:27:50.250Z,123.22
2019-05-12T13:30:21.298Z,186.82
2019-05-12T13:32:49.184Z,66.25
2019-05-12T13:35:20.079Z,75.30
2019-05-12T13:37:50.429Z,58.33
2019-05-12T13:40:18.492Z,91.63
2019-05-12T13:42:46.970Z,136.47
2019-05-12T13:45:16.464Z,141.77
2019-05-12T13:47:45.100Z,125.10
2019-05-12T13:50:21.810Z,149.27
2019-05-12T13:52:43.956Z,166.53
2019-05-12T13:55:13.453Z,125.07
2019-05-12T13:57:46.716Z,86.37
2019-05-12T14:00:14.070Z,131.13
2019-05-12T14:02:44.158Z,97.67
2019-05-12T14:05:14.997Z,109.05
2019-05-12T14:07:43.964Z,107.37
2019-05-12T14:10:14.027Z,86.55
2019-05-12T14:12:43.894Z,91.63
2019-05-12T14:15:14.137Z,110.97
2019-05-12T14:17:43.659Z,129.23
2019-05-12T14:20:20.009Z,92.70
2019-05-12T14:22:45.030Z,69.70
2019-05-12T14:25:15.225Z,85.80
2019-05-12T14:27:44.456Z,60.60
2019-05-12T14:30:14.547Z,74.00
2019-05-12T14:32:44.024Z,60.58
2019-05-12T14:35:13.423Z,64.00
2019-05-12T14:37:46.039Z,68.57
2019-05-12T14:40:13.337Z,73.85
2019-05-12T14:42:43.967Z,62.70
2019-05-12T14:45:13.985Z,60.55
2019-05-12T14:47:43.700Z,59.75
2019-05-12T14:50:14.138Z,77.22
2019-05-12T14:52:43.953Z,91.97
2019-05-12T14:55:13.961Z,69.97
2019-05-12T14:57:42.528Z,110.52
2019-05-12T15:00:17.308Z,120.17
2019-05-12T15:02:43.734Z,56.70
2019-05-12T15:05:14.109Z,79.72
2019-05-12T15:07:50.989Z,73.92
2019-05-12T15:10:14.296Z,70.87
2019-05-12T15:12:44.227Z,74.60
2019-05-12T15:15:18.408Z,118.10
2019-05-12T15:17:44.497Z,74.67
2019-05-12T15:20:13.882Z,83.58
2019-05-12T15:22:51.242Z,94.92
2019-05-12T15:25:14.430Z,86.40
2019-05-12T15:27:46.035Z,74.50
2019-05-12T15:30:22.386Z,112.68
2019-05-12T15:32:44.385Z,111.83
2019-05-12T15:35:13.700Z,88.35
2019-05-12T15:37:43.530Z,72.05
2019-05-12T15:40:14.483Z,86.08
2019-05-12T15:42:45.310Z,90.97
2019-05-12T15:45:16.392Z,80.05
2019-05-12T15:47:44.921Z,72.72
2019-05-12T15:54:11.079Z,105.78
2019-05-12T15:56:35.569Z,86.30
2019-05-12T15:59:04.721Z,85.67
2019-05-12T16:01:33.572Z,85.20
2019-05-12T16:04:03.653Z,78.40
2019-05-12T16:06:32.352Z,140.70
2019-05-12T16:09:00.854Z,230.95
2019-05-12T16:11:29.360Z,110.40
2019-05-12T16:13:59.374Z,69.58
2019-05-12T16:16:28.127Z,148.93
2019-05-12T16:18:56.643Z,107.65
2019-05-12T16:21:25.129Z,51.63
2019-05-12T16:23:56.712Z,51.58
2019-05-12T16:26:24.280Z,61.83
2019-05-12T16:28:53.998Z,52.23
2019-05-12T16:31:23.715Z,60.00
2019-05-12T16:34:00.869Z,64.65
2019-05-12T16:36:22.486Z,52.20
2019-05-12T16:38:58.085Z,38.65
2019-05-12T16:41:26.394Z,50.45
2019-05-12T16:43:53.671Z,44.20
2019-05-12T16:46:23.472Z,56.85
2019-05-12T16:48:56.655Z,37.60
2019-05-12T16:51:23.877Z,42.67
2019-05-12T16:53:53.976Z,42.88
2019-05-12T16:56:27.883Z,40.58
2019-05-12T16:58:54.284Z,44.00
2019-05-12T17:01:26.094Z,36.77
2019-05-12T17:03:54.640Z,39.45
2019-05-12T17:06:23.449Z,61.83
2019-05-12T17:08:54.242Z,46.05
2019-05-12T17:11:27.968Z,47.65
2019-05-12T17:13:56.747Z,46.63
2019-05-12T17:16:22.589Z,36.38
2019-05-12T17:18:53.250Z,30.37
2019-05-12T17:21:21.320Z,57.73
2019-05-12T17:23:49.909Z,45.17
2019-05-12T17:26:18.398Z,46.23
2019-05-12T17:28:46.888Z,52.85
2019-05-12T17:31:15.410Z,56.60
2019-05-12T17:33:43.902Z,56.10
2019-05-12T17:36:17.541Z,35.38
2019-05-12T17:38:44.069Z,51.80
2019-05-12T17:41:15.544Z,52.10
2019-05-12T17:43:51.922Z,56.80
2019-05-12T17:46:17.916Z,49.85
2019-05-12T17:48:44.886Z,54.70
2019-05-12T17:51:13.965Z,49.73
2019-05-12T17:53:43.431Z,49.25
2019-05-12T17:56:13.977Z,50.43
2019-05-12T17:58:46.941Z,50.05
2019-05-12T18:01:14.340Z,45.55
2019-05-12T18:03:48.791Z,61.23
2019-05-12T18:06:14.168Z,37.40
2019-05-12T18:08:44.268Z,49.63
2019-05-12T18:11:15.853Z,47.75
2019-05-12T18:13:43.767Z,50.15
2019-05-12T18:16:20.684Z,52.98
2019-05-12T18:18:43.528Z,50.48
2019-05-12T18:21:21.173Z,49.48
2019-05-12T18:23:43.665Z,43.45
2019-05-12T18:26:16.096Z,55.50
2019-05-12T18:28:44.262Z,73.60
2019-05-12T18:31:13.802Z,133.87
2019-05-12T18:33:50.951Z,51.08
2019-05-12T18:36:14.361Z,50.63
2019-05-12T18:38:44.656Z,49.85
2019-05-12T18:41:14.001Z,51.77
2019-05-12T18:43:43.497Z,49.30
2019-05-12T18:46:14.065Z,36.90
2019-05-12T18:48:42.429Z,61.42
2019-05-12T18:51:12.228Z,51.50
2019-05-12T18:53:43.834Z,34.20
2019-05-12T18:56:19.307Z,41.15
2019-05-12T18:58:44.490Z,34.75
2019-05-12T19:01:14.119Z,42.10
2019-05-12T19:03:49.754Z,34.18
2019-05-12T19:06:14.077Z,42.27
2019-05-12T19:08:42.855Z,38.65
2019-05-12T19:11:19.950Z,49.27
2019-05-12T19:13:45.272Z,73.55
2019-05-12T19:16:14.217Z,59.25
2019-05-12T19:18:42.231Z,79.15
2019-05-12T19:21:16.735Z,62.90
2019-05-12T19:23:40.906Z,52.58
2019-05-12T19:26:09.423Z,73.52
2019-05-12T19:28:44.282Z,64.42
2019-05-12T19:31:10.257Z,54.80
2019-05-12T19:33:44.025Z,59.33
2019-05-12T19:36:10.224Z,48.56
2019-05-12T19:38:38.715Z,64.32
2019-05-12T19:41:07.283Z,57.85
2019-05-12T19:43:39.279Z,41.08
2019-05-12T19:46:06.025Z,38.85
2019-05-12T19:48:43.082Z,43.95
2019-05-12T19:51:19.991Z,48.10
2019-05-12T19:53:35.365Z,31.93
2019-05-12T19:56:04.782Z,38.92
2019-05-12T19:58:34.047Z,43.95
2019-05-12T20:01:03.654Z,31.80
2019-05-12T20:03:33.521Z,51.45
2019-05-12T20:06:02.263Z,59.25
2019-05-12T20:08:30.790Z,64.03
2019-05-12T20:10:59.283Z,37.23
2019-05-12T20:13:29.732Z,59.60
2019-05-12T20:15:58.507Z,77.13
2019-05-12T20:18:27.027Z,65.12
2019-05-12T20:20:55.582Z,67.82
2019-05-12T20:23:24.674Z,70.50
2019-05-12T20:25:53.563Z,38.13
2019-05-12T20:28:24.269Z,26.53
2019-05-12T20:31:01.005Z,34.57
2019-05-12T20:33:24.074Z,30.37
2019-05-12T20:35:54.736Z,31.23
2019-05-12T20:38:25.428Z,31.33
2019-05-12T20:40:54.028Z,26.40
2019-05-12T20:43:24.092Z,31.00
2019-05-12T20:45:52.972Z,25.57
2019-05-12T20:48:26.374Z,29.30
2019-05-12T20:50:51.699Z,41.40
2019-05-12T20:53:24.871Z,33.80
2019-05-12T20:55:50.409Z,24.77
2019-05-12T20:58:18.895Z,28.50
2019-05-12T21:00:50.058Z,29.48
2019-05-12T21:03:18.579Z,26.27
2019-05-12T21:05:50.571Z,46.65
2019-05-12T21:08:17.490Z,32.85
2019-05-12T21:10:46.169Z,34.48
2019-05-12T21:13:14.878Z,32.03
2019-05-12T21:15:45.680Z,31.55
2019-05-12T21:18:14.737Z,37.17
2019-05-12T21:20:46.424Z,45.03
2019-05-12T21:23:13.677Z,46.02
2019-05-12T21:25:43.908Z,51.83
2019-05-12T21:28:14.642Z,50.85
2019-05-12T21:30:48.261Z,57.35
2019-05-12T21:33:14.722Z,43.05
2019-05-12T21:35:45.967Z,49.03
2019-05-12T21:38:13.530Z,50.12
2019-05-12T21:40:44.071Z,39.63
2019-05-12T21:43:13.541Z,42.78
2019-05-12T21:45:42.230Z,42.08
2019-05-12T21:48:15.025Z,38.10
2019-05-12T21:50:41.014Z,40.37
2019-05-12T21:53:10.062Z,44.42
2019-05-12T21:55:39.811Z,33.07
2019-05-12T21:58:12.135Z,33.35
2019-05-12T22:00:45.210Z,30.27
2019-05-12T22:03:15.616Z,38.42
2019-05-12T22:05:51.977Z,37.50
2019-05-12T22:08:20.810Z,31.03
2019-05-12T22:10:46.118Z,35.28
2019-05-12T22:13:17.954Z,33.65
2019-05-12T22:15:44.851Z,26.73
2019-05-12T22:18:13.359Z,28.80
2019-05-12T22:20:46.097Z,30.52
2019-05-12T22:23:14.976Z,37.75
2019-05-12T22:25:43.587Z,37.08
2019-05-12T22:28:13.516Z,37.20
2019-05-12T22:30:43.787Z,32.13
2019-05-12T22:33:14.572Z,44.40
2019-05-12T22:35:44.300Z,33.53
2019-05-12T22:38:16.629Z,35.00
2019-05-12T22:40:43.255Z,37.87
2019-05-12T22:43:14.048Z,37.08
2019-05-12T22:45:49.169Z,52.98
2019-05-12T22:48:12.194Z,57.30
2019-05-12T22:50:40.685Z,55.40
2019-05-12T22:53:09.194Z,57.62
2019-05-12T22:55:37.676Z,49.73
2019-05-12T22:58:10.835Z,43.85
2019-05-12T23:00:36.738Z,42.33
2019-05-12T23:03:11.465Z,36.25
2019-05-12T23:05:35.513Z,30.55
2019-05-12T23:08:08.348Z,35.20
2019-05-12T23:10:35.215Z,38.10
2019-05-12T23:13:05.107Z,34.13
2019-05-12T23:15:38.795Z,33.25
2019-05-12T23:18:05.038Z,43.60
2019-05-12T23:20:35.651Z,36.25
2019-05-12T23:23:08.646Z,36.90
2019-05-12T23:25:34.070Z,33.53
2019-05-12T23:28:08.383Z,36.55
2019-05-12T23:30:32.896Z,32.05
2019-05-12T23:33:03.897Z,32.13
2019-05-12T23:35:37.306Z,30.35
2019-05-12T23:38:04.175Z,39.73
2019-05-12T23:40:34.286Z,37.50
2019-05-12T23:43:04.097Z,36.70
2019-05-12T23:45:33.894Z,41.18
2019-05-12T23:48:03.769Z,36.63
2019-05-12T23:50:32.600Z,35.15
2019-05-12T23:53:03.476Z,37.90
2019-05-12T23:55:34.688Z,32.78
2019-05-12T23:58:04.328Z,34.15
